sensor_id;sensor_type;location;lat;lon;timestamp;temperature;humidity
30473;DHT22;17263;48.160;11.452;2022-08-01T00:00:35;21.50;99.90
30473;DHT22;17263;48.160;11.452;2022-08-01T00:03:02;21.40;99.90
30473;DHT22;17263;48.160;11.452;2022-08-01T00:05:28;21.40;99.90
30473;DHT22;17263;48.160;11.452;2022-08-01T00:07:54;21.40;99.90
30473;DHT22;17263;48.160;11.452;2022-08-01T00:10:20;21.40;99.90
30473;DHT22;17263;48.160;11.452;2022-08-01T00:12:46;21.40;99.90
30473;DHT22;17263;48.160;11.452;2022-08-01T00:15:14;21.30;99.90
30473;DHT22;17263;48.160;11.452;2022-08-01T00:17:41;21.30;99.90
30473;DHT22;17263;48.160;11.452;2022-08-01T00:20:09;21.20;99.90
30473;DHT22;17263;48.160;11.452;2022-08-01T00:22:36;21.20;99.90
30473;DHT22;17263;48.160;11.452;2022-08-01T00:25:04;21.10;99.90
30473;DHT22;17263;48.160;11.452;2022-08-01T00:27:30;21.10;99.90
30473;DHT22;17263;48.160;11.452;2022-08-01T00:29:57;21.00;99.90
30473;DHT22;17263;48.160;11.452;2022-08-01T00:32:24;21.00;99.90
30473;DHT22;17263;48.160;11.452;2022-08-01T00:34:50;21.00;99.90
30473;DHT22;17263;48.160;11.452;2022-08-01T00:37:16;20.90;99.90
30473;DHT22;17263;48.160;11.452;2022-08-01T00:39:42;20.90;99.90
30473;DHT22;17263;48.160;11.452;2022-08-01T00:42:10;20.90;99.90
30473;DHT22;17263;48.160;11.452;2022-08-01T00:44:36;20.80;99.90
30473;DHT22;17263;48.160;11.452;2022-08-01T00:47:03;20.80;99.90
30473;DHT22;17263;48.160;11.452;2022-08-01T00:49:29;20.70;99.90
30473;DHT22;17263;48.160;11.452;2022-08-01T00:51:56;20.70;99.90
30473;DHT22;17263;48.160;11.452;2022-08-01T00:54:26;20.60;99.90
30473;DHT22;17263;48.160;11.452;2022-08-01T00:56:53;20.60;99.90
30473;DHT22;17263;48.160;11.452;2022-08-01T00:59:21;20.60;99.90
30473;DHT22;17263;48.160;11.452;2022-08-01T01:01:48;20.50;99.90
30473;DHT22;17263;48.160;11.452;2022-08-01T01:04:14;20.50;99.90
30473;DHT22;17263;48.160;11.452;2022-08-01T01:12:22;20.40;99.90
30473;DHT22;17263;48.160;11.452;2022-08-01T01:15:10;20.30;99.90
30473;DHT22;17263;48.160;11.452;2022-08-01T01:17:50;20.30;99.90
30473;DHT22;17263;48.160;11.452;2022-08-01T01:20:19;20.30;99.90
30473;DHT22;17263;48.160;11.452;2022-08-01T01:29:17;20.10;99.90
30473;DHT22;17263;48.160;11.452;2022-08-01T01:31:52;20.20;99.90
30473;DHT22;17263;48.160;11.452;2022-08-01T01:34:21;20.10;99.90
30473;DHT22;17263;48.160;11.452;2022-08-01T01:36:48;20.10;99.90
30473;DHT22;17263;48.160;11.452;2022-08-01T01:39:16;20.00;99.90
30473;DHT22;17263;48.160;11.452;2022-08-01T01:41:44;20.00;99.90
30473;DHT22;17263;48.160;11.452;2022-08-01T01:44:11;19.90;99.90
30473;DHT22;17263;48.160;11.452;2022-08-01T01:46:37;19.90;99.90
30473;DHT22;17263;48.160;11.452;2022-08-01T01:49:05;19.80;99.90
30473;DHT22;17263;48.160;11.452;2022-08-01T01:51:36;19.80;99.90
30473;DHT22;17263;48.160;11.452;2022-08-01T01:54:04;19.80;99.90
30473;DHT22;17263;48.160;11.452;2022-08-01T01:56:31;19.80;99.90
30473;DHT22;17263;48.160;11.452;2022-08-01T01:59:01;19.80;99.90
30473;DHT22;17263;48.160;11.452;2022-08-01T02:01:32;19.80;99.90
30473;DHT22;17263;48.160;11.452;2022-08-01T02:03:59;19.80;99.90
30473;DHT22;17263;48.160;11.452;2022-08-01T02:06:29;19.80;99.90
30473;DHT22;17263;48.160;11.452;2022-08-01T02:08:58;19.80;99.90
30473;DHT22;17263;48.160;11.452;2022-08-01T02:11:25;19.90;99.90
30473;DHT22;17263;48.160;11.452;2022-08-01T02:13:53;19.90;99.90
30473;DHT22;17263;48.160;11.452;2022-08-01T02:16:23;19.90;99.90
30473;DHT22;17263;48.160;11.452;2022-08-01T02:18:50;19.90;99.90
30473;DHT22;17263;48.160;11.452;2022-08-01T02:21:23;20.00;99.90
30473;DHT22;17263;48.160;11.452;2022-08-01T02:23:51;20.00;99.90
30473;DHT22;17263;48.160;11.452;2022-08-01T02:26:18;20.00;99.90
30473;DHT22;17263;48.160;11.452;2022-08-01T02:28:52;19.90;99.90
30473;DHT22;17263;48.160;11.452;2022-08-01T02:31:21;19.90;99.90
30473;DHT22;17263;48.160;11.452;2022-08-01T02:33:58;19.90;99.90
30473;DHT22;17263;48.160;11.452;2022-08-01T02:36:28;19.90;99.90
30473;DHT22;17263;48.160;11.452;2022-08-01T02:38:57;19.90;99.90
30473;DHT22;17263;48.160;11.452;2022-08-01T02:41:26;19.90;99.90
30473;DHT22;17263;48.160;11.452;2022-08-01T02:43:59;19.90;99.90
30473;DHT22;17263;48.160;11.452;2022-08-01T02:46:32;19.90;99.90
30473;DHT22;17263;48.160;11.452;2022-08-01T02:49:03;19.90;99.90
30473;DHT22;17263;48.160;11.452;2022-08-01T02:51:30;20.00;99.90
30473;DHT22;17263;48.160;11.452;2022-08-01T02:53:59;20.00;99.90
30473;DHT22;17263;48.160;11.452;2022-08-01T02:56:27;20.00;99.90
30473;DHT22;17263;48.160;11.452;2022-08-01T02:59:26;19.90;99.90
30473;DHT22;17263;48.160;11.452;2022-08-01T03:01:57;19.90;99.90
30473;DHT22;17263;48.160;11.452;2022-08-01T03:04:25;19.90;99.90
30473;DHT22;17263;48.160;11.452;2022-08-01T03:06:54;19.80;99.90
30473;DHT22;17263;48.160;11.452;2022-08-01T03:09:23;19.80;99.90
30473;DHT22;17263;48.160;11.452;2022-08-01T03:11:49;19.80;99.90
30473;DHT22;17263;48.160;11.452;2022-08-01T03:14:18;19.80;99.90
30473;DHT22;17263;48.160;11.452;2022-08-01T03:16:46;19.80;99.90
30473;DHT22;17263;48.160;11.452;2022-08-01T03:19:13;19.70;99.90
30473;DHT22;17263;48.160;11.452;2022-08-01T03:21:40;19.80;99.90
30473;DHT22;17263;48.160;11.452;2022-08-01T03:24:08;19.70;99.90
30473;DHT22;17263;48.160;11.452;2022-08-01T03:26:36;19.70;99.90
30473;DHT22;17263;48.160;11.452;2022-08-01T03:29:05;19.70;99.90
30473;DHT22;17263;48.160;11.452;2022-08-01T03:31:35;19.70;99.90
30473;DHT22;17263;48.160;11.452;2022-08-01T03:34:02;19.70;99.90
30473;DHT22;17263;48.160;11.452;2022-08-01T03:36:30;19.60;99.90
30473;DHT22;17263;48.160;11.452;2022-08-01T03:39:01;19.60;99.90
30473;DHT22;17263;48.160;11.452;2022-08-01T03:41:34;19.50;99.90
30473;DHT22;17263;48.160;11.452;2022-08-01T03:44:25;19.60;99.90
30473;DHT22;17263;48.160;11.452;2022-08-01T03:47:04;19.50;99.90
30473;DHT22;17263;48.160;11.452;2022-08-01T03:49:33;19.50;99.90
30473;DHT22;17263;48.160;11.452;2022-08-01T03:52:02;19.50;99.90
30473;DHT22;17263;48.160;11.452;2022-08-01T03:54:33;19.40;99.90
30473;DHT22;17263;48.160;11.452;2022-08-01T03:57:01;19.40;99.90
30473;DHT22;17263;48.160;11.452;2022-08-01T03:59:29;19.40;99.90
30473;DHT22;17263;48.160;11.452;2022-08-01T04:01:55;19.40;99.90
30473;DHT22;17263;48.160;11.452;2022-08-01T04:04:22;19.40;99.90
30473;DHT22;17263;48.160;11.452;2022-08-01T04:06:48;19.30;99.90
30473;DHT22;17263;48.160;11.452;2022-08-01T04:09:20;19.30;99.90
30473;DHT22;17263;48.160;11.452;2022-08-01T04:11:47;19.30;99.90
30473;DHT22;17263;48.160;11.452;2022-08-01T04:14:14;19.30;99.90
30473;DHT22;17263;48.160;11.452;2022-08-01T04:16:40;19.30;99.90
30473;DHT22;17263;48.160;11.452;2022-08-01T04:19:06;19.30;99.90
30473;DHT22;17263;48.160;11.452;2022-08-01T04:21:34;19.30;99.90
30473;DHT22;17263;48.160;11.452;2022-08-01T04:24:10;19.30;99.90
30473;DHT22;17263;48.160;11.452;2022-08-01T04:26:37;19.30;99.90
30473;DHT22;17263;48.160;11.452;2022-08-01T04:29:06;19.30;99.90
30473;DHT22;17263;48.160;11.452;2022-08-01T04:31:35;19.30;99.90
30473;DHT22;17263;48.160;11.452;2022-08-01T04:34:03;19.30;99.90
30473;DHT22;17263;48.160;11.452;2022-08-01T04:36:33;19.40;99.90
30473;DHT22;17263;48.160;11.452;2022-08-01T04:39:00;19.40;99.90
30473;DHT22;17263;48.160;11.452;2022-08-01T04:41:27;19.40;99.90
30473;DHT22;17263;48.160;11.452;2022-08-01T04:43:56;19.50;99.90
30473;DHT22;17263;48.160;11.452;2022-08-01T04:46:26;19.50;99.90
30473;DHT22;17263;48.160;11.452;2022-08-01T04:48:53;19.60;99.90
30473;DHT22;17263;48.160;11.452;2022-08-01T04:51:20;19.60;99.90
30473;DHT22;17263;48.160;11.452;2022-08-01T04:53:48;19.70;99.90
30473;DHT22;17263;48.160;11.452;2022-08-01T04:56:17;19.80;99.90
30473;DHT22;17263;48.160;11.452;2022-08-01T04:58:43;19.80;99.90
30473;DHT22;17263;48.160;11.452;2022-08-01T05:01:10;19.90;99.90
30473;DHT22;17263;48.160;11.452;2022-08-01T05:03:37;20.00;99.90
30473;DHT22;17263;48.160;11.452;2022-08-01T05:06:03;20.20;99.90
30473;DHT22;17263;48.160;11.452;2022-08-01T05:08:29;20.30;99.90
30473;DHT22;17263;48.160;11.452;2022-08-01T05:10:55;20.50;99.90
30473;DHT22;17263;48.160;11.452;2022-08-01T05:13:21;20.70;99.90
30473;DHT22;17263;48.160;11.452;2022-08-01T05:15:47;20.80;99.90
30473;DHT22;17263;48.160;11.452;2022-08-01T05:18:13;20.90;99.90
30473;DHT22;17263;48.160;11.452;2022-08-01T05:20:40;21.00;99.90
30473;DHT22;17263;48.160;11.452;2022-08-01T05:23:07;21.20;99.90
30473;DHT22;17263;48.160;11.452;2022-08-01T05:25:33;21.30;99.90
30473;DHT22;17263;48.160;11.452;2022-08-01T05:27:59;21.40;99.90
30473;DHT22;17263;48.160;11.452;2022-08-01T05:30:25;21.60;99.90
30473;DHT22;17263;48.160;11.452;2022-08-01T05:32:51;21.80;99.90
30473;DHT22;17263;48.160;11.452;2022-08-01T05:35:18;22.20;99.90
30473;DHT22;17263;48.160;11.452;2022-08-01T05:37:44;23.10;99.90
30473;DHT22;17263;48.160;11.452;2022-08-01T05:40:10;24.10;99.90
30473;DHT22;17263;48.160;11.452;2022-08-01T05:42:37;24.50;99.90
30473;DHT22;17263;48.160;11.452;2022-08-01T05:45:03;24.40;99.90
30473;DHT22;17263;48.160;11.452;2022-08-01T05:47:29;24.20;99.90
30473;DHT22;17263;48.160;11.452;2022-08-01T05:49:55;24.10;99.90
30473;DHT22;17263;48.160;11.452;2022-08-01T05:52:21;24.50;99.90
30473;DHT22;17263;48.160;11.452;2022-08-01T05:54:47;25.60;99.90
30473;DHT22;17263;48.160;11.452;2022-08-01T05:57:13;26.70;99.60
30473;DHT22;17263;48.160;11.452;2022-08-01T05:59:39;27.80;96.60
30473;DHT22;17263;48.160;11.452;2022-08-01T06:02:06;28.80;93.30
30473;DHT22;17263;48.160;11.452;2022-08-01T06:04:32;29.60;90.60
30473;DHT22;17263;48.160;11.452;2022-08-01T06:06:58;30.20;85.90
30473;DHT22;17263;48.160;11.452;2022-08-01T06:09:24;30.90;81.90
30473;DHT22;17263;48.160;11.452;2022-08-01T06:11:50;31.40;75.60
30473;DHT22;17263;48.160;11.452;2022-08-01T06:14:16;31.80;72.00
30473;DHT22;17263;48.160;11.452;2022-08-01T06:16:42;32.10;69.00
30473;DHT22;17263;48.160;11.452;2022-08-01T06:19:08;32.40;67.40
30473;DHT22;17263;48.160;11.452;2022-08-01T06:21:34;32.60;66.40
30473;DHT22;17263;48.160;11.452;2022-08-01T06:24:00;33.00;63.80
30473;DHT22;17263;48.160;11.452;2022-08-01T06:26:26;33.10;62.40
30473;DHT22;17263;48.160;11.452;2022-08-01T06:28:52;33.30;61.80
30473;DHT22;17263;48.160;11.452;2022-08-01T06:31:18;33.60;59.50
30473;DHT22;17263;48.160;11.452;2022-08-01T06:33:44;33.70;59.10
30473;DHT22;17263;48.160;11.452;2022-08-01T06:36:10;33.70;58.20
30473;DHT22;17263;48.160;11.452;2022-08-01T06:38:37;34.00;56.70
30473;DHT22;17263;48.160;11.452;2022-08-01T06:41:03;34.00;56.60
30473;DHT22;17263;48.160;11.452;2022-08-01T06:43:29;34.10;55.80
30473;DHT22;17263;48.160;11.452;2022-08-01T06:45:56;34.20;54.80
30473;DHT22;17263;48.160;11.452;2022-08-01T06:48:22;34.50;53.90
30473;DHT22;17263;48.160;11.452;2022-08-01T06:50:48;34.40;54.90
30473;DHT22;17263;48.160;11.452;2022-08-01T06:53:14;34.40;53.50
30473;DHT22;17263;48.160;11.452;2022-08-01T06:55:40;34.60;54.00
30473;DHT22;17263;48.160;11.452;2022-08-01T06:58:06;34.70;53.50
30473;DHT22;17263;48.160;11.452;2022-08-01T07:00:32;34.80;52.90
30473;DHT22;17263;48.160;11.452;2022-08-01T07:02:59;34.90;52.00
30473;DHT22;17263;48.160;11.452;2022-08-01T07:05:25;34.80;51.60
30473;DHT22;17263;48.160;11.452;2022-08-01T07:07:51;34.70;52.50
30473;DHT22;17263;48.160;11.452;2022-08-01T07:10:18;34.70;51.80
30473;DHT22;17263;48.160;11.452;2022-08-01T07:12:44;35.00;51.60
30473;DHT22;17263;48.160;11.452;2022-08-01T07:15:11;35.10;51.60
30473;DHT22;17263;48.160;11.452;2022-08-01T07:17:40;35.20;51.20
30473;DHT22;17263;48.160;11.452;2022-08-01T07:20:08;35.30;50.40
30473;DHT22;17263;48.160;11.452;2022-08-01T07:22:34;35.40;50.30
30473;DHT22;17263;48.160;11.452;2022-08-01T07:25:00;35.30;50.60
30473;DHT22;17263;48.160;11.452;2022-08-01T07:27:27;35.30;50.50
30473;DHT22;17263;48.160;11.452;2022-08-01T07:29:53;35.20;50.10
30473;DHT22;17263;48.160;11.452;2022-08-01T07:32:19;35.60;50.20
30473;DHT22;17263;48.160;11.452;2022-08-01T07:34:45;35.50;49.00
30473;DHT22;17263;48.160;11.452;2022-08-01T07:37:11;35.60;49.30
30473;DHT22;17263;48.160;11.452;2022-08-01T07:39:38;35.80;49.10
30473;DHT22;17263;48.160;11.452;2022-08-01T07:42:04;35.60;49.80
30473;DHT22;17263;48.160;11.452;2022-08-01T07:44:30;35.70;49.30
30473;DHT22;17263;48.160;11.452;2022-08-01T07:46:56;35.60;48.80
30473;DHT22;17263;48.160;11.452;2022-08-01T07:49:22;35.60;49.20
30473;DHT22;17263;48.160;11.452;2022-08-01T07:51:48;35.50;49.20
30473;DHT22;17263;48.160;11.452;2022-08-01T07:54:14;35.30;48.90
30473;DHT22;17263;48.160;11.452;2022-08-01T07:56:40;35.20;49.90
30473;DHT22;17263;48.160;11.452;2022-08-01T07:59:06;35.00;49.60
30473;DHT22;17263;48.160;11.452;2022-08-01T08:01:32;34.90;50.40
30473;DHT22;17263;48.160;11.452;2022-08-01T08:03:58;34.90;50.00
30473;DHT22;17263;48.160;11.452;2022-08-01T08:06:24;35.20;49.70
30473;DHT22;17263;48.160;11.452;2022-08-01T08:08:50;35.40;49.50
30473;DHT22;17263;48.160;11.452;2022-08-01T08:11:19;35.10;49.60
30473;DHT22;17263;48.160;11.452;2022-08-01T08:13:45;35.10;49.60
30473;DHT22;17263;48.160;11.452;2022-08-01T08:16:11;35.10;49.80
30473;DHT22;17263;48.160;11.452;2022-08-01T08:18:37;35.10;49.50
30473;DHT22;17263;48.160;11.452;2022-08-01T08:21:04;35.00;50.20
30473;DHT22;17263;48.160;11.452;2022-08-01T08:23:30;35.00;50.40
30473;DHT22;17263;48.160;11.452;2022-08-01T08:26:14;34.90;50.40
30473;DHT22;17263;48.160;11.452;2022-08-01T08:28:40;35.00;50.50
30473;DHT22;17263;48.160;11.452;2022-08-01T08:31:07;34.90;50.90
30473;DHT22;17263;48.160;11.452;2022-08-01T08:33:33;34.80;49.90
30473;DHT22;17263;48.160;11.452;2022-08-01T08:35:59;34.70;50.70
30473;DHT22;17263;48.160;11.452;2022-08-01T08:38:25;34.70;51.30
30473;DHT22;17263;48.160;11.452;2022-08-01T08:40:53;34.70;51.30
30473;DHT22;17263;48.160;11.452;2022-08-01T08:43:19;34.90;51.10
30473;DHT22;17263;48.160;11.452;2022-08-01T08:45:46;34.80;50.60
30473;DHT22;17263;48.160;11.452;2022-08-01T08:48:15;34.60;51.20
30473;DHT22;17263;48.160;11.452;2022-08-01T08:50:43;34.60;51.70
30473;DHT22;17263;48.160;11.452;2022-08-01T08:53:13;34.60;51.20
30473;DHT22;17263;48.160;11.452;2022-08-01T08:55:42;34.60;51.20
30473;DHT22;17263;48.160;11.452;2022-08-01T08:58:13;34.50;51.50
30473;DHT22;17263;48.160;11.452;2022-08-01T09:00:40;34.60;51.60
30473;DHT22;17263;48.160;11.452;2022-08-01T09:03:06;34.50;51.30
30473;DHT22;17263;48.160;11.452;2022-08-01T09:05:32;34.30;51.40
30473;DHT22;17263;48.160;11.452;2022-08-01T09:07:58;34.10;51.60
30473;DHT22;17263;48.160;11.452;2022-08-01T09:10:25;33.80;51.80
30473;DHT22;17263;48.160;11.452;2022-08-01T09:13:10;33.90;52.90
30473;DHT22;17263;48.160;11.452;2022-08-01T09:15:41;34.10;52.80
30473;DHT22;17263;48.160;11.452;2022-08-01T09:18:09;34.00;51.10
30473;DHT22;17263;48.160;11.452;2022-08-01T09:20:50;33.80;52.10
30473;DHT22;17263;48.160;11.452;2022-08-01T09:23:37;33.70;51.50
30473;DHT22;17263;48.160;11.452;2022-08-01T09:26:17;33.60;50.50
30473;DHT22;17263;48.160;11.452;2022-08-01T09:28:44;33.30;51.20
30473;DHT22;17263;48.160;11.452;2022-08-01T09:31:13;33.10;51.80
30473;DHT22;17263;48.160;11.452;2022-08-01T09:33:51;33.10;51.90
30473;DHT22;17263;48.160;11.452;2022-08-01T09:36:22;33.10;52.10
30473;DHT22;17263;48.160;11.452;2022-08-01T09:38:48;32.80;52.20
30473;DHT22;17263;48.160;11.452;2022-08-01T09:41:15;33.00;52.80
30473;DHT22;17263;48.160;11.452;2022-08-01T09:43:48;32.70;51.90
30473;DHT22;17263;48.160;11.452;2022-08-01T09:46:14;32.70;53.80
30473;DHT22;17263;48.160;11.452;2022-08-01T09:49:04;32.60;54.20
30473;DHT22;17263;48.160;11.452;2022-08-01T09:51:38;32.60;53.40
30473;DHT22;17263;48.160;11.452;2022-08-01T09:54:06;32.50;52.70
30473;DHT22;17263;48.160;11.452;2022-08-01T09:56:37;32.40;53.20
30473;DHT22;17263;48.160;11.452;2022-08-01T09:59:04;32.20;54.40
30473;DHT22;17263;48.160;11.452;2022-08-01T10:01:50;32.00;55.00
30473;DHT22;17263;48.160;11.452;2022-08-01T10:04:19;31.90;54.20
30473;DHT22;17263;48.160;11.452;2022-08-01T10:06:50;31.80;54.60
30473;DHT22;17263;48.160;11.452;2022-08-01T10:09:29;31.70;55.40
30473;DHT22;17263;48.160;11.452;2022-08-01T10:11:56;31.80;55.40
30473;DHT22;17263;48.160;11.452;2022-08-01T10:14:24;31.90;55.30
30473;DHT22;17263;48.160;11.452;2022-08-01T10:16:52;32.00;54.80
30473;DHT22;17263;48.160;11.452;2022-08-01T10:19:21;31.90;54.60
30473;DHT22;17263;48.160;11.452;2022-08-01T10:21:49;31.80;54.50
30473;DHT22;17263;48.160;11.452;2022-08-01T10:24:19;31.80;54.60
30473;DHT22;17263;48.160;11.452;2022-08-01T10:26:52;31.80;53.90
30473;DHT22;17263;48.160;11.452;2022-08-01T10:29:21;31.60;54.40
30473;DHT22;17263;48.160;11.452;2022-08-01T10:31:48;31.60;55.40
30473;DHT22;17263;48.160;11.452;2022-08-01T10:34:15;31.80;55.60
30473;DHT22;17263;48.160;11.452;2022-08-01T10:36:45;31.60;55.40
30473;DHT22;17263;48.160;11.452;2022-08-01T10:39:11;31.40;56.00
30473;DHT22;17263;48.160;11.452;2022-08-01T10:41:39;31.20;55.60
30473;DHT22;17263;48.160;11.452;2022-08-01T10:44:08;31.10;56.10
30473;DHT22;17263;48.160;11.452;2022-08-01T10:46:38;30.90;56.00
30473;DHT22;17263;48.160;11.452;2022-08-01T10:49:13;30.80;56.20
30473;DHT22;17263;48.160;11.452;2022-08-01T10:51:41;30.50;57.10
30473;DHT22;17263;48.160;11.452;2022-08-01T10:54:10;30.40;56.80
30473;DHT22;17263;48.160;11.452;2022-08-01T10:56:44;30.00;57.90
30473;DHT22;17263;48.160;11.452;2022-08-01T10:59:20;29.80;58.90
30473;DHT22;17263;48.160;11.452;2022-08-01T11:02:02;29.60;58.70
30473;DHT22;17263;48.160;11.452;2022-08-01T11:04:41;29.30;59.70
30473;DHT22;17263;48.160;11.452;2022-08-01T11:07:22;29.30;60.20
30473;DHT22;17263;48.160;11.452;2022-08-01T11:10:04;29.20;59.90
30473;DHT22;17263;48.160;11.452;2022-08-01T11:12:40;29.00;59.70
30473;DHT22;17263;48.160;11.452;2022-08-01T11:17:43;28.60;61.20
30473;DHT22;17263;48.160;11.452;2022-08-01T11:20:23;28.60;61.00
30473;DHT22;17263;48.160;11.452;2022-08-01T11:30:46;28.30;62.40
30473;DHT22;17263;48.160;11.452;2022-08-01T11:33:13;28.40;62.70
30473;DHT22;17263;48.160;11.452;2022-08-01T11:41:26;28.40;60.60
30473;DHT22;17263;48.160;11.452;2022-08-01T11:44:15;28.30;62.60
30473;DHT22;17263;48.160;11.452;2022-08-01T11:46:49;28.30;62.30
30473;DHT22;17263;48.160;11.452;2022-08-01T11:52:10;28.40;60.80
30473;DHT22;17263;48.160;11.452;2022-08-01T11:54:44;28.50;61.10
30473;DHT22;17263;48.160;11.452;2022-08-01T11:59:43;28.60;61.40
30473;DHT22;17263;48.160;11.452;2022-08-01T12:02:17;28.70;60.40
30473;DHT22;17263;48.160;11.452;2022-08-01T12:04:55;28.70;59.60
30473;DHT22;17263;48.160;11.452;2022-08-01T12:07:24;28.80;59.80
30473;DHT22;17263;48.160;11.452;2022-08-01T12:12:30;28.90;59.90
30473;DHT22;17263;48.160;11.452;2022-08-01T12:15:02;28.90;59.00
30473;DHT22;17263;48.160;11.452;2022-08-01T12:20:05;29.00;57.30
30473;DHT22;17263;48.160;11.452;2022-08-01T12:22:31;29.10;58.00
30473;DHT22;17263;48.160;11.452;2022-08-01T12:25:08;29.10;58.40
30473;DHT22;17263;48.160;11.452;2022-08-01T12:27:35;28.90;58.70
30473;DHT22;17263;48.160;11.452;2022-08-01T12:30:05;28.70;58.80
30473;DHT22;17263;48.160;11.452;2022-08-01T12:32:33;28.50;58.90
30473;DHT22;17263;48.160;11.452;2022-08-01T12:35:11;28.30;59.20
30473;DHT22;17263;48.160;11.452;2022-08-01T12:37:39;28.20;59.80
30473;DHT22;17263;48.160;11.452;2022-08-01T12:40:18;28.40;58.10
30473;DHT22;17263;48.160;11.452;2022-08-01T12:42:50;28.50;58.50
30473;DHT22;17263;48.160;11.452;2022-08-01T12:47:56;28.80;57.80
30473;DHT22;17263;48.160;11.452;2022-08-01T12:50:27;28.80;56.80
30473;DHT22;17263;48.160;11.452;2022-08-01T12:52:54;28.70;58.00
30473;DHT22;17263;48.160;11.452;2022-08-01T12:55:21;28.70;58.70
30473;DHT22;17263;48.160;11.452;2022-08-01T12:57:49;28.60;58.00
30473;DHT22;17263;48.160;11.452;2022-08-01T13:00:24;28.50;56.90
30473;DHT22;17263;48.160;11.452;2022-08-01T13:06:00;28.10;57.80
30473;DHT22;17263;48.160;11.452;2022-08-01T13:08:32;27.90;58.60
30473;DHT22;17263;48.160;11.452;2022-08-01T13:11:02;27.80;60.50
30473;DHT22;17263;48.160;11.452;2022-08-01T13:13:40;27.60;62.70
30473;DHT22;17263;48.160;11.452;2022-08-01T13:16:07;27.30;66.40
30473;DHT22;17263;48.160;11.452;2022-08-01T13:18:34;27.00;67.60
30473;DHT22;17263;48.160;11.452;2022-08-01T13:23:38;26.60;68.70
30473;DHT22;17263;48.160;11.452;2022-08-01T13:26:05;26.40;69.90
30473;DHT22;17263;48.160;11.452;2022-08-01T13:28:31;26.30;69.80
30473;DHT22;17263;48.160;11.452;2022-08-01T13:31:03;26.30;70.40
30473;DHT22;17263;48.160;11.452;2022-08-01T13:33:48;26.20;70.00
30473;DHT22;17263;48.160;11.452;2022-08-01T13:36:14;26.20;69.30
30473;DHT22;17263;48.160;11.452;2022-08-01T13:38:41;26.20;68.70
30473;DHT22;17263;48.160;11.452;2022-08-01T13:41:26;26.10;68.60
30473;DHT22;17263;48.160;11.452;2022-08-01T13:43:53;26.10;68.40
30473;DHT22;17263;48.160;11.452;2022-08-01T13:46:19;26.10;67.90
30473;DHT22;17263;48.160;11.452;2022-08-01T13:48:45;26.10;67.60
30473;DHT22;17263;48.160;11.452;2022-08-01T13:51:11;26.10;66.80
30473;DHT22;17263;48.160;11.452;2022-08-01T13:53:37;26.10;66.70
30473;DHT22;17263;48.160;11.452;2022-08-01T13:56:03;26.00;66.70
30473;DHT22;17263;48.160;11.452;2022-08-01T13:58:29;26.00;67.20
30473;DHT22;17263;48.160;11.452;2022-08-01T14:00:55;26.00;67.90
30473;DHT22;17263;48.160;11.452;2022-08-01T14:03:22;25.90;68.60
30473;DHT22;17263;48.160;11.452;2022-08-01T14:05:48;25.80;70.70
30473;DHT22;17263;48.160;11.452;2022-08-01T14:08:15;25.70;73.20
30473;DHT22;17263;48.160;11.452;2022-08-01T14:10:41;25.70;74.30
30473;DHT22;17263;48.160;11.452;2022-08-01T14:13:07;25.60;75.00
30473;DHT22;17263;48.160;11.452;2022-08-01T14:15:33;25.60;76.90
30473;DHT22;17263;48.160;11.452;2022-08-01T14:17:59;25.60;78.80
30473;DHT22;17263;48.160;11.452;2022-08-01T14:20:26;25.60;79.40
30473;DHT22;17263;48.160;11.452;2022-08-01T14:22:51;25.60;79.30
30473;DHT22;17263;48.160;11.452;2022-08-01T14:25:18;25.70;79.80
30473;DHT22;17263;48.160;11.452;2022-08-01T14:27:45;25.60;79.30
30473;DHT22;17263;48.160;11.452;2022-08-01T14:30:11;25.70;79.00
30473;DHT22;17263;48.160;11.452;2022-08-01T14:32:38;25.70;78.70
30473;DHT22;17263;48.160;11.452;2022-08-01T14:35:05;25.70;78.30
30473;DHT22;17263;48.160;11.452;2022-08-01T14:37:32;25.80;78.60
30473;DHT22;17263;48.160;11.452;2022-08-01T14:39:59;25.90;77.90
30473;DHT22;17263;48.160;11.452;2022-08-01T14:42:25;25.90;77.60
30473;DHT22;17263;48.160;11.452;2022-08-01T14:44:51;25.80;77.80
30473;DHT22;17263;48.160;11.452;2022-08-01T14:47:17;25.80;77.90
30473;DHT22;17263;48.160;11.452;2022-08-01T14:49:43;25.70;77.70
30473;DHT22;17263;48.160;11.452;2022-08-01T14:52:09;25.70;77.40
30473;DHT22;17263;48.160;11.452;2022-08-01T14:54:35;25.60;77.60
30473;DHT22;17263;48.160;11.452;2022-08-01T14:57:01;25.50;77.80
30473;DHT22;17263;48.160;11.452;2022-08-01T14:59:27;25.40;78.60
30473;DHT22;17263;48.160;11.452;2022-08-01T15:01:53;25.40;79.80
30473;DHT22;17263;48.160;11.452;2022-08-01T15:04:19;25.20;80.60
30473;DHT22;17263;48.160;11.452;2022-08-01T15:06:45;25.20;81.00
30473;DHT22;17263;48.160;11.452;2022-08-01T15:09:11;25.10;81.00
30473;DHT22;17263;48.160;11.452;2022-08-01T15:11:37;25.10;80.60
30473;DHT22;17263;48.160;11.452;2022-08-01T15:14:03;25.00;80.30
30473;DHT22;17263;48.160;11.452;2022-08-01T15:16:48;25.00;80.50
30473;DHT22;17263;48.160;11.452;2022-08-01T15:19:15;25.00;80.60
30473;DHT22;17263;48.160;11.452;2022-08-01T15:21:41;25.00;80.40
30473;DHT22;17263;48.160;11.452;2022-08-01T15:24:07;24.90;81.70
30473;DHT22;17263;48.160;11.452;2022-08-01T15:26:34;24.80;83.90
30473;DHT22;17263;48.160;11.452;2022-08-01T15:29:01;24.70;85.10
30473;DHT22;17263;48.160;11.452;2022-08-01T15:31:27;24.50;85.50
30473;DHT22;17263;48.160;11.452;2022-08-01T15:33:53;24.30;86.70
30473;DHT22;17263;48.160;11.452;2022-08-01T15:36:19;24.20;88.00
30473;DHT22;17263;48.160;11.452;2022-08-01T15:38:45;24.10;89.20
30473;DHT22;17263;48.160;11.452;2022-08-01T15:41:11;23.90;90.20
30473;DHT22;17263;48.160;11.452;2022-08-01T15:43:37;23.80;90.50
30473;DHT22;17263;48.160;11.452;2022-08-01T15:46:03;23.70;91.10
30473;DHT22;17263;48.160;11.452;2022-08-01T15:48:30;23.60;91.70
30473;DHT22;17263;48.160;11.452;2022-08-01T15:50:55;23.50;91.70
30473;DHT22;17263;48.160;11.452;2022-08-01T15:53:22;23.50;91.90
30473;DHT22;17263;48.160;11.452;2022-08-01T15:55:48;23.40;92.40
30473;DHT22;17263;48.160;11.452;2022-08-01T15:58:14;23.30;92.70
30473;DHT22;17263;48.160;11.452;2022-08-01T16:00:40;23.30;93.10
30473;DHT22;17263;48.160;11.452;2022-08-01T16:03:07;23.20;93.60
30473;DHT22;17263;48.160;11.452;2022-08-01T16:05:33;23.20;94.00
30473;DHT22;17263;48.160;11.452;2022-08-01T16:08:01;23.20;94.70
30473;DHT22;17263;48.160;11.452;2022-08-01T16:10:29;23.20;95.30